Tilton, NH (03276)

7:18 AM EDT on September 05, 2015 (GMT -0400)
Tilton NH | | Change Station
CLOSE
Current Station
Personal Weather Station
Location: Tilton, NH
Elevation: 866 ft
Nearby Weather Stations

Elev 866 ft 43.47 °N, 71.61 °W | Updated 3 minutes ago

Fog
Fog
55.0 °F
Feels Like 55.0 °F
N
0.0
Wind Variable Wind from SE
Gusts 0.0 mph

Today
High -- | Low -- °F
--% Chance of Precip.
Yesterday
High -- | Low -- °F
Precip. -- in
6:14 AM 7:14 PM
Waning Gibbous, 49% visible
Pressure 30.31 in
Visibility 10.0 miles
Clouds Clear
Dew Point 53 °F
Humidity 94%
Rainfall 0.00 in
Snow Depth Not available.
UV 1 out of 12
Pollen 7.30 out of 12
Air Quality Not available.
Flu Activity Not available.
METAR KLCI 051115Z AUTO 00000KT 10SM CLR 12/10 A3031 RMK AO1
Pressure 30.31 in
Visibility 10.0 miles
Clouds Clear
Dew Point 53 °F
Humidity 94%
Rainfall 0.00 in
Snow Depth Not available.
UV 1 out of 12
Pollen 7.30 out of 12
Air Quality Not available.
Flu Activity Not available.
METAR KLCI 051115Z AUTO 00000KT 10SM CLR 12/10 A3031 RMK AO1

10-Day Weather Forecast

×

Almanac

Astronomy

Sep. 05, 2015 Rise Set
Actual Time
Civil Twilight
Nautical Twilight
Astronomical Twilight
Moon
Length of Visible Light
Length of Day
Tomorrow will be .
, % of the Moon is Illuminated

Today's Extremes

State Highs State Lows

Community

WunderPhotos

Upload Photos

1,852,445 photos uploaded!

WunderBlogs® & News

Nearby

Air Quality

  Air Quality AQ Index Pollutant
Not available.

Snow Depth

Station Depth Elevation

Earthquake Activity

City Distance Mag. Time & Date
Minimum magnitude displayed is 2.5.

Coastal Water Temperatures

Place Temperature

Stations

Nearby Weather Stations

Station Location Temp. Windchill Dew Point Humidity Wind Precip. Elev Updated Type